createdAt,value
2019-03-13T00:02:27.038Z,1.00
2019-03-13T00:04:54.466Z,0.90
2019-03-13T00:07:21.968Z,1.00
2019-03-13T00:09:49.357Z,0.90
2019-03-13T00:12:16.810Z,1.10
2019-03-13T00:14:44.213Z,0.90
2019-03-13T00:17:11.605Z,0.90
2019-03-13T00:19:39.053Z,1.10
2019-03-13T00:22:10.035Z,0.80
2019-03-13T00:24:37.440Z,1.00
2019-03-13T00:27:05.074Z,1.03
2019-03-13T00:29:32.459Z,1.10
2019-03-13T00:31:59.874Z,1.17
2019-03-13T00:34:27.280Z,1.00
2019-03-13T00:36:54.672Z,1.10
2019-03-13T00:39:22.068Z,1.00
2019-03-13T00:41:49.519Z,0.90
2019-03-13T00:44:16.894Z,1.07
2019-03-13T00:46:44.549Z,1.10
2019-03-13T00:49:12.189Z,1.07
2019-03-13T00:51:39.578Z,1.00
2019-03-13T00:54:06.975Z,1.27
2019-03-13T00:56:34.474Z,1.20
2019-03-13T00:59:01.854Z,1.03
2019-03-13T01:01:51.571Z,1.30
2019-03-13T01:04:29.019Z,1.17
2019-03-13T01:06:59.909Z,1.00
2019-03-13T01:09:27.877Z,1.00
2019-03-13T01:11:55.264Z,1.20
2019-03-13T01:14:22.691Z,1.00
2019-03-13T01:16:50.084Z,1.00
2019-03-13T01:19:17.477Z,0.97
2019-03-13T01:21:44.905Z,1.10
2019-03-13T01:24:12.294Z,1.13
2019-03-13T01:26:39.706Z,0.90
2019-03-13T01:29:07.181Z,1.07
2019-03-13T01:31:53.502Z,0.97
2019-03-13T01:34:27.347Z,0.90
2019-03-13T01:36:54.742Z,1.20
2019-03-13T01:39:22.122Z,1.00
2019-03-13T01:41:49.709Z,1.03
2019-03-13T01:44:17.107Z,1.10
2019-03-13T01:46:44.509Z,1.00
2019-03-13T01:49:12.140Z,0.90
2019-03-13T01:51:40.612Z,1.07
2019-03-13T01:54:07.998Z,1.20
2019-03-13T01:56:35.429Z,1.10
2019-03-13T01:59:02.833Z,1.10
2019-03-13T02:01:30.214Z,1.20
2019-03-13T02:03:57.782Z,0.90
2019-03-13T02:06:25.187Z,1.00
2019-03-13T02:08:52.566Z,1.10
2019-03-13T02:11:20.093Z,1.03
2019-03-13T02:13:47.496Z,1.00
2019-03-13T02:16:14.890Z,1.00
2019-03-13T02:18:42.470Z,0.90
2019-03-13T02:21:09.872Z,1.00
2019-03-13T02:23:37.258Z,0.93
2019-03-13T02:26:04.709Z,1.00
2019-03-13T02:28:32.098Z,1.20
2019-03-13T02:30:59.508Z,1.07
2019-03-13T02:33:26.926Z,0.90
2019-03-13T02:35:54.320Z,1.03
2019-03-13T02:38:21.721Z,1.00
2019-03-13T02:40:49.149Z,0.90
2019-03-13T02:43:16.632Z,1.00
2019-03-13T02:45:44.031Z,1.00
2019-03-13T02:48:11.482Z,1.03
2019-03-13T02:50:38.846Z,0.90
2019-03-13T02:53:06.582Z,1.00
2019-03-13T02:55:34.186Z,1.00
2019-03-13T02:58:01.590Z,0.90
2019-03-13T03:00:47.138Z,1.00
2019-03-13T03:03:27.991Z,0.90
2019-03-13T03:05:56.019Z,1.00
2019-03-13T03:08:23.399Z,0.90
2019-03-13T03:10:50.810Z,0.97
2019-03-13T03:13:18.232Z,0.90
2019-03-13T03:15:45.517Z,0.73
2019-03-13T03:18:12.946Z,1.13
2019-03-13T03:20:40.376Z,0.83
2019-03-13T03:23:09.575Z,0.87
2019-03-13T03:25:36.965Z,1.00
2019-03-13T03:28:04.659Z,0.90
2019-03-13T03:30:32.289Z,0.87
2019-03-13T03:32:59.669Z,0.80
2019-03-13T03:35:27.138Z,0.80
2019-03-13T03:37:54.526Z,0.87
2019-03-13T03:40:23.390Z,2.30
2019-03-13T03:42:51.201Z,0.93
2019-03-13T03:45:18.566Z,1.17
2019-03-13T03:47:46.215Z,1.30
2019-03-13T03:50:14.254Z,1.07
2019-03-13T03:52:41.639Z,1.00
2019-03-13T03:55:09.278Z,1.03
2019-03-13T03:57:36.871Z,1.20
2019-03-13T04:00:05.546Z,0.90
2019-03-13T04:02:32.971Z,1.10
2019-03-13T04:05:00.850Z,0.90
2019-03-13T04:07:28.392Z,0.80
2019-03-13T04:09:55.783Z,1.20
2019-03-13T04:12:23.382Z,1.43
2019-03-13T04:14:50.844Z,2.53
2019-03-13T04:17:18.263Z,1.93
2019-03-13T04:19:45.726Z,1.40
2019-03-13T04:22:13.135Z,1.13
2019-03-13T04:24:40.538Z,2.30
2019-03-13T04:27:08.015Z,1.67
2019-03-13T04:29:35.410Z,1.20
2019-03-13T04:32:02.797Z,1.30
2019-03-13T04:34:30.247Z,1.10
2019-03-13T04:36:57.631Z,1.03
2019-03-13T04:39:25.033Z,0.93
2019-03-13T04:41:52.461Z,1.00
2019-03-13T04:44:19.846Z,0.90
2019-03-13T04:46:47.249Z,0.90
2019-03-13T04:49:14.679Z,1.40
2019-03-13T04:51:42.890Z,1.47
2019-03-13T04:54:10.277Z,1.73
2019-03-13T04:56:37.747Z,1.80
2019-03-13T04:59:05.143Z,2.00
2019-03-13T05:01:32.532Z,1.70
2019-03-13T05:04:00.102Z,1.50
2019-03-13T05:06:27.490Z,1.20
2019-03-13T05:09:15.890Z,1.40
2019-03-13T05:11:43.273Z,1.40
2019-03-13T05:14:10.662Z,1.40
2019-03-13T05:16:38.104Z,2.00
2019-03-13T05:19:05.509Z,2.30
2019-03-13T05:21:32.902Z,1.70
2019-03-13T05:24:00.366Z,1.70
2019-03-13T05:26:27.766Z,1.90
2019-03-13T05:28:55.176Z,2.70
2019-03-13T05:31:22.874Z,1.57
2019-03-13T05:33:50.254Z,1.23
2019-03-13T05:36:17.651Z,1.50
2019-03-13T05:38:45.342Z,1.80
2019-03-13T05:41:12.734Z,3.10
2019-03-13T05:43:40.242Z,2.10
2019-03-13T05:46:07.685Z,1.93
2019-03-13T05:48:35.523Z,1.93
2019-03-13T05:51:02.919Z,2.27
2019-03-13T05:53:30.562Z,3.10
2019-03-13T05:55:57.914Z,2.43
2019-03-13T05:58:25.317Z,1.60
2019-03-13T06:00:52.898Z,1.40
2019-03-13T06:03:20.310Z,1.20
2019-03-13T06:05:47.710Z,1.20
2019-03-13T06:08:18.284Z,1.50
2019-03-13T06:10:44.344Z,1.27
2019-03-13T06:13:11.724Z,1.00
2019-03-13T06:15:39.318Z,1.20
2019-03-13T06:18:09.586Z,1.00
2019-03-13T06:20:35.929Z,1.20
2019-03-13T06:23:03.395Z,1.10
2019-03-13T06:25:30.790Z,1.00
2019-03-13T06:27:58.197Z,1.10
2019-03-13T06:30:25.610Z,1.10
2019-03-13T06:32:53.010Z,0.87
2019-03-13T06:35:23.456Z,0.70
2019-03-13T06:37:49.756Z,0.90
2019-03-13T06:40:17.153Z,1.10
2019-03-13T06:42:44.542Z,0.80
2019-03-13T06:45:12.487Z,0.80
2019-03-13T06:47:39.882Z,3.70
2019-03-13T06:50:10.870Z,3.30
2019-03-13T06:52:38.622Z,3.00
2019-03-13T06:55:06.143Z,3.40
2019-03-13T06:57:33.539Z,3.00
2019-03-13T07:00:15.688Z,3.00
2019-03-13T07:02:49.148Z,2.80
2019-03-13T07:05:24.145Z,2.93
2019-03-13T07:08:16.822Z,2.70
2019-03-13T07:11:06.471Z,3.17
2019-03-13T07:13:42.966Z,3.10
2019-03-13T07:16:33.638Z,2.37
2019-03-13T07:19:19.152Z,2.27
2019-03-13T07:22:24.646Z,2.87
2019-03-13T07:25:04.822Z,2.57
2019-03-13T07:27:57.945Z,3.60
2019-03-13T07:30:37.186Z,2.30
2019-03-13T07:33:22.872Z,1.90
2019-03-13T07:36:04.039Z,2.33
2019-03-13T07:38:59.387Z,2.57
2019-03-13T07:41:35.690Z,2.70
2019-03-13T07:44:14.528Z,3.00
2019-03-13T07:47:16.510Z,3.30
2019-03-13T07:50:02.318Z,2.70
2019-03-13T07:52:47.011Z,3.50
2019-03-13T07:55:40.035Z,3.30
2019-03-13T07:58:29.931Z,3.17
2019-03-13T08:01:20.140Z,3.07
2019-03-13T08:04:16.361Z,3.03
2019-03-13T08:07:03.302Z,2.60
2019-03-13T08:09:52.733Z,3.17
2019-03-13T08:12:42.438Z,2.60
2019-03-13T08:15:18.537Z,2.80
2019-03-13T08:17:57.459Z,2.30
2019-03-13T08:20:56.239Z,2.30
2019-03-13T08:23:46.347Z,2.00
2019-03-13T08:26:33.258Z,2.50
2019-03-13T08:29:21.532Z,2.27
2019-03-13T08:32:19.829Z,2.00
2019-03-13T08:35:07.449Z,2.20
2019-03-13T08:37:58.433Z,1.60
2019-03-13T08:40:39.656Z,2.10
2019-03-13T08:43:25.176Z,2.00
2019-03-13T08:46:13.195Z,2.50
2019-03-13T08:49:08.750Z,2.40
2019-03-13T08:51:44.798Z,2.07
2019-03-13T08:54:37.499Z,2.13
2019-03-13T08:57:33.886Z,2.00
2019-03-13T09:00:19.593Z,2.10
2019-03-13T09:03:06.556Z,1.90
2019-03-13T09:05:50.662Z,2.13
2019-03-13T09:08:36.187Z,1.90
2019-03-13T09:11:18.836Z,2.00
2019-03-13T09:14:05.785Z,1.40
2019-03-13T09:16:42.007Z,1.33
2019-03-13T09:19:34.557Z,1.43
2019-03-13T09:22:33.350Z,1.50
2019-03-13T09:25:12.405Z,1.33
2019-03-13T09:27:59.557Z,1.60
2019-03-13T09:30:49.296Z,1.50
2019-03-13T09:33:29.594Z,1.70
2019-03-13T09:36:25.433Z,1.60
2019-03-13T09:39:18.347Z,1.40
2019-03-13T09:42:02.803Z,1.40
2019-03-13T09:44:38.229Z,1.63
2019-03-13T09:47:12.789Z,1.47
2019-03-13T09:49:59.797Z,1.33
2019-03-13T09:52:56.308Z,1.00
2019-03-13T09:55:45.795Z,1.17
2019-03-13T09:58:38.652Z,0.93
2019-03-13T10:01:30.610Z,1.00
2019-03-13T10:04:35.646Z,1.20
2019-03-13T10:07:25.157Z,1.10
2019-03-13T10:10:15.161Z,1.10
2019-03-13T10:13:08.105Z,1.23
2019-03-13T10:15:47.478Z,1.07
2019-03-13T10:18:24.010Z,1.10
2019-03-13T10:21:17.699Z,1.10
2019-03-13T10:23:52.710Z,1.13
2019-03-13T10:26:36.216Z,1.17
2019-03-13T10:29:14.142Z,1.23
2019-03-13T10:32:06.105Z,1.30
2019-03-13T10:35:05.398Z,2.00
2019-03-13T10:37:58.072Z,1.30
2019-03-13T10:40:41.190Z,1.00
2019-03-13T10:43:46.534Z,1.30
2019-03-13T10:46:39.219Z,1.30
2019-03-13T10:49:31.934Z,1.30
2019-03-13T10:52:24.858Z,1.10
2019-03-13T10:55:11.274Z,1.20
2019-03-13T10:57:49.961Z,1.00
2019-03-13T11:00:55.088Z,2.20
2019-03-13T11:03:47.569Z,1.20
2019-03-13T11:06:54.926Z,1.30
2019-03-13T11:09:30.934Z,1.33
2019-03-13T11:12:03.719Z,1.10
2019-03-13T11:14:43.162Z,1.50
2019-03-13T11:17:21.014Z,1.40
2019-03-13T11:20:06.363Z,1.50
2019-03-13T11:23:01.995Z,1.90
2019-03-13T11:25:54.944Z,2.30
2019-03-13T11:28:50.960Z,1.80
2019-03-13T11:31:36.435Z,1.40
2019-03-13T11:34:23.526Z,1.90
2019-03-13T11:37:09.038Z,2.10
2019-03-13T11:39:54.502Z,2.03
2019-03-13T11:42:39.849Z,1.80
2019-03-13T11:45:15.924Z,1.60
2019-03-13T11:48:00.303Z,1.63
2019-03-13T11:50:59.330Z,1.63
2019-03-13T11:53:45.086Z,2.27
2019-03-13T11:56:24.031Z,1.97
2019-03-13T11:59:17.081Z,1.57
2019-03-13T12:02:16.155Z,1.50
2019-03-13T12:05:03.058Z,1.53
2019-03-13T12:07:52.866Z,1.47
2019-03-13T12:10:26.693Z,1.97
2019-03-13T12:13:31.797Z,1.50
2019-03-13T12:16:27.477Z,2.00
2019-03-13T12:19:01.901Z,1.80
2019-03-13T12:21:38.203Z,2.10
2019-03-13T12:24:27.662Z,1.60
2019-03-13T12:27:05.173Z,1.93
2019-03-13T12:29:54.979Z,1.90
2019-03-13T12:32:44.686Z,1.80
2019-03-13T12:35:23.691Z,1.60
2019-03-13T12:37:58.449Z,1.40
2019-03-13T12:40:44.314Z,1.87
2019-03-13T12:43:24.705Z,1.50
2019-03-13T12:46:12.107Z,1.33
2019-03-13T12:48:47.246Z,1.23
2019-03-13T12:51:27.344Z,1.33
2019-03-13T12:54:23.053Z,1.10
2019-03-13T12:57:04.210Z,1.43
2019-03-13T12:59:53.698Z,1.60
2019-03-13T13:02:40.666Z,1.37
2019-03-13T13:05:19.682Z,1.37
2019-03-13T13:08:15.518Z,1.20
2019-03-13T13:11:08.237Z,1.17
2019-03-13T13:14:13.173Z,1.20
2019-03-13T13:17:05.684Z,1.10
2019-03-13T13:19:33.124Z,1.40
2019-03-13T13:22:00.521Z,1.10
2019-03-13T13:24:27.902Z,1.43
2019-03-13T13:26:55.407Z,1.20
2019-03-13T13:29:22.818Z,1.20
2019-03-13T13:31:50.205Z,1.20
2019-03-13T13:34:18.008Z,1.20
2019-03-13T13:36:45.306Z,1.20
2019-03-13T13:39:12.693Z,1.30
2019-03-13T13:41:40.008Z,1.40
2019-03-13T13:44:07.396Z,1.30
2019-03-13T13:46:37.692Z,1.37
2019-03-13T13:49:05.541Z,3.20
2019-03-13T13:51:33.269Z,2.40
2019-03-13T13:54:01.016Z,1.60
2019-03-13T13:56:28.492Z,1.20
2019-03-13T13:58:55.877Z,1.13
2019-03-13T14:01:23.255Z,1.47
2019-03-13T14:03:50.688Z,1.27
2019-03-13T14:06:18.066Z,1.20
2019-03-13T14:08:45.438Z,1.10
2019-03-13T14:11:12.875Z,1.30
2019-03-13T14:13:40.259Z,1.20
2019-03-13T14:16:07.644Z,1.00
2019-03-13T14:18:35.064Z,1.30
2019-03-13T14:21:02.443Z,1.03
2019-03-13T14:23:29.824Z,1.27
2019-03-13T14:25:57.249Z,1.00
2019-03-13T14:28:24.637Z,1.07
2019-03-13T14:30:52.041Z,0.90
2019-03-13T14:33:19.493Z,1.00
2019-03-13T14:35:46.902Z,1.00
2019-03-13T14:38:14.294Z,1.10
2019-03-13T14:40:41.688Z,1.10
2019-03-13T14:43:09.063Z,0.80
2019-03-13T14:45:36.446Z,1.50
2019-03-13T14:48:04.130Z,1.20
2019-03-13T14:50:31.522Z,1.10
2019-03-13T14:52:59.172Z,0.90
2019-03-13T14:55:27.118Z,1.00
2019-03-13T14:57:54.516Z,1.30
2019-03-13T15:00:21.918Z,1.00
2019-03-13T15:02:49.326Z,0.90
2019-03-13T15:05:16.709Z,0.97
2019-03-13T15:07:44.106Z,0.90
2019-03-13T15:10:12.258Z,1.20
2019-03-13T15:12:42.830Z,1.13
2019-03-13T15:15:09.852Z,1.00
2019-03-13T15:17:37.274Z,1.00
2019-03-13T15:20:07.087Z,1.30
2019-03-13T15:22:34.466Z,0.80
2019-03-13T15:25:01.906Z,1.30
2019-03-13T15:27:29.305Z,1.00
2019-03-13T15:29:56.691Z,1.20
2019-03-13T15:32:24.113Z,1.00
2019-03-13T15:34:51.506Z,1.00
2019-03-13T15:37:18.886Z,0.90
2019-03-13T15:39:46.307Z,1.00
2019-03-13T15:42:13.676Z,0.80
2019-03-13T15:44:41.054Z,1.00
2019-03-13T15:47:08.516Z,1.30
2019-03-13T15:49:35.904Z,0.90
2019-03-13T15:52:03.427Z,1.00
2019-03-13T15:54:31.239Z,1.00
2019-03-13T15:56:58.642Z,1.10
2019-03-13T15:59:26.040Z,1.00
2019-03-13T16:01:53.538Z,0.80
2019-03-13T16:04:20.942Z,1.10
2019-03-13T16:06:48.349Z,0.90
2019-03-13T16:09:15.968Z,1.00
2019-03-13T16:11:43.382Z,1.13
2019-03-13T16:14:10.818Z,1.40
2019-03-13T16:16:38.411Z,1.43
2019-03-13T16:19:05.837Z,1.90
2019-03-13T16:21:33.227Z,1.50
2019-03-13T16:24:00.890Z,1.60
2019-03-13T16:26:28.340Z,2.10
2019-03-13T16:28:55.762Z,1.80
2019-03-13T16:31:23.202Z,1.33
2019-03-13T16:33:50.608Z,1.60
2019-03-13T16:36:18.009Z,1.60
2019-03-13T16:38:45.558Z,1.30
2019-03-13T16:41:12.954Z,1.10
2019-03-13T16:43:40.370Z,1.00
2019-03-13T16:46:07.826Z,1.10
2019-03-13T16:48:35.229Z,1.10
2019-03-13T16:51:02.615Z,1.00
2019-03-13T16:53:30.136Z,1.10
2019-03-13T16:55:57.970Z,0.97
2019-03-13T16:58:25.371Z,1.00
2019-03-13T17:00:52.822Z,1.23
2019-03-13T17:03:20.235Z,1.10
2019-03-13T17:05:47.638Z,1.30
2019-03-13T17:08:15.298Z,1.20
2019-03-13T17:10:42.692Z,1.10
2019-03-13T17:13:10.087Z,1.20
2019-03-13T17:15:37.549Z,0.97
2019-03-13T17:18:04.967Z,1.20
2019-03-13T17:20:32.376Z,1.40
2019-03-13T17:22:59.814Z,1.50
2019-03-13T17:25:27.207Z,1.40
2019-03-13T17:27:54.593Z,1.20
2019-03-13T17:30:23.853Z,1.00
2019-03-13T17:32:51.396Z,0.90
2019-03-13T17:35:18.785Z,1.10
2019-03-13T17:37:46.436Z,1.43
2019-03-13T17:40:15.621Z,1.20
2019-03-13T17:42:43.010Z,1.10
2019-03-13T17:45:12.930Z,0.80
2019-03-13T17:47:41.562Z,0.83
2019-03-13T17:50:10.591Z,0.90
2019-03-13T17:52:38.435Z,0.90
2019-03-13T17:55:07.146Z,0.90
2019-03-13T17:57:35.568Z,0.80
2019-03-13T18:00:04.358Z,1.00
2019-03-13T18:02:31.746Z,1.70
2019-03-13T18:04:59.147Z,1.60
2019-03-13T18:07:27.094Z,1.33
2019-03-13T18:09:54.513Z,1.60
2019-03-13T18:12:21.921Z,1.50
2019-03-13T18:14:49.388Z,1.50
2019-03-13T18:17:16.790Z,2.50
2019-03-13T18:19:44.199Z,3.20
2019-03-13T18:22:11.640Z,2.90
2019-03-13T18:24:39.023Z,2.87
2019-03-13T18:27:06.422Z,2.20
2019-03-13T18:29:33.875Z,2.70
2019-03-13T18:32:01.362Z,2.40
2019-03-13T18:34:28.759Z,2.20
2019-03-13T18:36:56.230Z,2.10
2019-03-13T18:39:23.648Z,1.70
2019-03-13T18:41:51.286Z,1.50
2019-03-13T18:44:18.814Z,1.93
2019-03-13T18:46:46.210Z,2.13
2019-03-13T18:49:13.599Z,1.80
2019-03-13T18:51:41.049Z,2.63
2019-03-13T18:54:08.908Z,1.60
2019-03-13T18:56:38.532Z,2.23
2019-03-13T18:59:05.843Z,1.70
2019-03-13T19:01:35.056Z,1.47
2019-03-13T19:04:02.485Z,1.30
2019-03-13T19:06:29.938Z,1.40
2019-03-13T19:08:57.355Z,1.20
2019-03-13T19:11:24.750Z,2.17
2019-03-13T19:13:52.317Z,2.93
2019-03-13T19:16:19.768Z,1.47
2019-03-13T19:18:47.173Z,1.10
2019-03-13T19:21:14.621Z,1.20
2019-03-13T19:23:43.179Z,1.10
2019-03-13T19:26:10.573Z,1.20
2019-03-13T19:28:38.440Z,1.30
2019-03-13T19:31:06.108Z,1.30
2019-03-13T19:33:35.325Z,1.40
2019-03-13T19:36:04.603Z,1.43
2019-03-13T19:38:32.113Z,1.37
2019-03-13T19:40:59.707Z,1.10
2019-03-13T19:43:27.443Z,1.70
2019-03-13T19:45:54.850Z,1.70
2019-03-13T19:48:22.309Z,1.80
2019-03-13T19:50:51.432Z,1.00
2019-03-13T19:53:20.965Z,1.40
2019-03-13T19:55:48.553Z,1.03
2019-03-13T19:58:16.023Z,1.30
2019-03-13T20:00:43.870Z,1.70
2019-03-13T20:03:11.514Z,2.20
2019-03-13T20:05:45.238Z,2.33
2019-03-13T20:08:08.471Z,1.70
2019-03-13T20:10:36.075Z,1.47
2019-03-13T20:13:04.235Z,1.60
2019-03-13T20:15:32.115Z,1.93
2019-03-13T20:17:59.529Z,1.80
2019-03-13T20:20:27.019Z,1.87
2019-03-13T20:22:58.091Z,1.90
2019-03-13T20:25:25.604Z,2.80
2019-03-13T20:27:54.676Z,2.70
2019-03-13T20:30:25.587Z,1.90
2019-03-13T20:32:53.156Z,2.13
2019-03-13T20:35:20.800Z,1.67
2019-03-13T20:37:50.036Z,2.20
2019-03-13T20:40:18.610Z,2.13
2019-03-13T20:42:46.007Z,2.00
2019-03-13T20:45:15.520Z,2.20
2019-03-13T20:47:43.300Z,1.80
2019-03-13T20:50:10.923Z,2.10
2019-03-13T20:52:38.661Z,1.77
2019-03-13T20:55:07.325Z,1.90
2019-03-13T20:57:34.833Z,1.57
2019-03-13T21:00:02.674Z,1.80
2019-03-13T21:02:30.107Z,1.30
2019-03-13T21:05:01.660Z,1.93
2019-03-13T21:07:29.194Z,1.60
2019-03-13T21:09:56.658Z,1.70
2019-03-13T21:12:24.142Z,2.47
2019-03-13T21:14:51.662Z,2.40
2019-03-13T21:17:19.088Z,2.30
2019-03-13T21:19:48.626Z,2.70
2019-03-13T21:22:16.126Z,2.27
2019-03-13T21:24:43.610Z,1.70
2019-03-13T21:27:11.143Z,1.80
2019-03-13T21:29:38.831Z,1.67
2019-03-13T21:32:06.529Z,1.90
2019-03-13T21:34:34.171Z,2.20
2019-03-13T21:37:01.573Z,3.00
2019-03-13T21:39:28.986Z,2.47
2019-03-13T21:41:56.516Z,2.37
2019-03-13T21:44:24.037Z,2.07
2019-03-13T21:46:53.960Z,2.00
2019-03-13T21:49:23.593Z,2.40
2019-03-13T21:51:50.989Z,2.53
2019-03-13T21:54:18.645Z,2.23
2019-03-13T21:56:46.295Z,1.77
2019-03-13T21:59:13.677Z,2.07
2019-03-13T22:01:41.090Z,2.40
2019-03-13T22:04:08.537Z,2.23
2019-03-13T22:06:35.938Z,2.23
2019-03-13T22:09:05.170Z,1.70
2019-03-13T22:11:32.730Z,2.30
2019-03-13T22:14:00.145Z,2.00
2019-03-13T22:16:27.535Z,1.93
2019-03-13T22:18:55.208Z,1.90
2019-03-13T22:21:22.606Z,2.33
2019-03-13T22:23:50.038Z,2.53
2019-03-13T22:26:17.474Z,2.70
2019-03-13T22:28:44.867Z,2.80
2019-03-13T22:31:12.434Z,2.87
2019-03-13T22:33:40.083Z,2.77
2019-03-13T22:36:07.649Z,2.47
2019-03-13T22:38:35.072Z,2.20
2019-03-13T22:41:02.507Z,2.10
2019-03-13T22:43:29.909Z,2.20
2019-03-13T22:45:57.303Z,2.10
2019-03-13T22:48:24.869Z,2.47
2019-03-13T22:50:52.253Z,2.10
2019-03-13T22:53:19.798Z,1.80
2019-03-13T22:55:47.871Z,2.03
2019-03-13T22:58:15.271Z,2.00
2019-03-13T23:00:59.228Z,1.90
2019-03-13T23:03:28.586Z,2.53
2019-03-13T23:05:56.199Z,2.07
2019-03-13T23:08:23.798Z,1.67
2019-03-13T23:10:51.258Z,2.10
2019-03-13T23:13:18.664Z,1.90
2019-03-13T23:15:46.400Z,2.10
2019-03-13T23:18:13.804Z,1.80
2019-03-13T23:20:41.191Z,1.93
2019-03-13T23:23:08.885Z,2.40
2019-03-13T23:25:36.294Z,2.50
2019-03-13T23:28:03.699Z,2.23
2019-03-13T23:30:31.414Z,2.10
2019-03-13T23:32:59.173Z,2.17
2019-03-13T23:35:26.581Z,2.80
2019-03-13T23:37:54.371Z,2.50
2019-03-13T23:40:21.974Z,2.20
2019-03-13T23:42:49.373Z,2.20
2019-03-13T23:45:16.836Z,2.30
2019-03-13T23:47:44.254Z,2.07
2019-03-13T23:50:11.669Z,2.53
2019-03-13T23:52:39.354Z,2.37
2019-03-13T23:55:08.425Z,1.90
2019-03-13T23:57:36.045Z,1.90
